Latest Weather Observations for Port Macquarie Airport

IDN60801

Issued at 4:32 am EST Saturday 30 May 2015 (issued every 30 minutes, with the page automatically refreshed every 10 minutes)

About weather observations | Map of weather stations | Latest weather observations for NSW | Other Formats
Station Details ID: 060139 Name: PORT MACQUARIE AIRPORT AWS Lat: -31.43 Lon: 152.87 Height: 4.2 m
Data from the previous 72 hours. | See also: Recent months at Port Macquarie Airport
Date/Time
EST
Temp
°C
App
Temp
°C
Dew
Point
Rel
Hum
%
Delta-T
°C
Wind Press
QNH
hPa
Press
MSL
hPa
Rain
since 9 am
mm
Dir
 
Spd
km/h
Gust
km/h
Spd
kts
Gust
kts
30/04:30am 13.2 12.8 12.4 95 0.4 WSW 6 7 3 4 1021.5 1021.5 0.2
30/04:00am 13.1 13.2 12.6 97 0.3 WSW 4 11 2 6 1021.4 1021.4 0.2
30/03:30am 12.6 12.1 12.1 97 0.3 W 6 11 3 6 1021.4 1021.4 0.2
30/03:00am 11.9 12.3 11.4 97 0.3 CALM 0 0 0 0 1021.6 1021.6 0.2
30/02:30am 12.9 13.3 12.6 98 0.2 W 2 7 1 4 1021.6 1021.6 0.2
30/02:00am 11.7 10.9 11.2 97 0.3 W 6 7 3 4 1021.9 1021.9 0.2
30/01:56am 11.7 10.9 11.2 97 0.3 W 6 7 3 4 1021.9 1021.9 0.2
30/01:36am 11.3 11.6 10.8 97 0.3 CALM 0 0 0 0 1022.0 1022.0 0.2
30/01:30am 11.1 11.3 10.6 97 0.3 CALM 0 0 0 0 1022.0 1022.0 0.2
30/01:00am 10.7 10.8 10.2 97 0.3 CALM 0 0 0 0 1022.1 1022.1 0.2
30/12:49am 11.7 12.1 11.1 96 0.3 CALM 0 0 0 0 1022.0 1022.0 0.2
30/12:30am 11.0 11.2 10.4 96 0.3 CALM 0 0 0 0 1021.9 1021.9 0.2
30/12:00am 11.3 11.5 10.7 96 0.3 CALM 0 0 0 0 1022.3 1022.3 0.2
 
Date/Time
EST
Temp
°C
App
Temp
°C
Dew
Point
Rel
Hum
%
Delta-T
°C
Wind Press
QNH
hPa
Press
MSL
hPa
Rain
since 9 am
mm
Dir
 
Spd
km/h
Gust
km/h
Spd
kts
Gust
kts
29/11:30pm 11.1 11.2 10.3 95 0.4 CALM 0 0 0 0 1022.6 1022.6 0.2
29/11:00pm 12.0 12.4 11.4 96 0.3 CALM 0 0 0 0 1022.8 1022.8 0.2
29/10:52pm 12.5 13.1 11.9 96 0.3 CALM 0 0 0 0 1022.9 1022.9 0.2
29/10:37pm 12.8 13.1 12.2 96 0.3 N 2 6 1 3 1022.8 1022.8 0.2
29/10:30pm 12.9 12.9 12.3 96 0.3 NNE 4 6 2 3 1022.9 1022.9 0.2
29/10:02pm 12.7 13.3 11.9 95 0.4 CALM 0 0 0 0 1022.6 1022.6 0.2
29/10:00pm 13.4 14.2 12.6 95 0.4 CALM 0 0 0 0 1022.6 1022.6 0.2
29/09:58pm 13.3 14.1 12.5 95 0.4 CALM 0 0 0 0 1022.6 - 0.2
29/09:57pm 13.3 14.1 12.5 95 0.4 CALM 0 0 0 0 1022.6 1022.6 0.2
29/09:43pm 12.7 13.2 11.6 93 0.6 CALM 0 0 0 0 1022.6 1022.6 0.2
29/09:30pm 14.2 15.3 13.6 96 0.3 CALM 0 0 0 0 1022.5 1022.5 0.2
29/09:00pm 14.6 14.7 13.8 95 0.4 NNW 6 9 3 5 1022.6 1022.6 0.2
29/08:30pm 14.5 15.4 13.9 96 0.3 WNW 2 7 1 4 1022.7 1022.7 0.2
29/08:00pm 14.4 15.2 13.6 95 0.4 NNW 2 7 1 4 1022.7 1022.7 0.2
29/07:30pm 14.7 14.7 14.1 96 0.3 WNW 7 11 4 6 1022.5 1022.5 0.2
29/07:00pm 14.6 15.7 13.6 94 0.6 CALM 0 0 0 0 1022.3 1022.3 0.2
29/06:30pm 15.5 16.9 14.5 94 0.6 CALM 0 0 0 0 1022.0 1022.0 0.2
29/06:00pm 15.6 17.1 14.6 94 0.6 CALM 0 7 0 4 1021.9 1021.9 0.2
29/05:30pm 15.8 16.6 14.8 94 0.6 WNW 4 7 2 4 1021.5 1021.5 0.2
29/05:00pm 16.0 17.6 14.9 93 0.6 CALM 0 0 0 0 1021.4 1021.4 0.2
29/04:30pm 16.2 17.5 15.1 93 0.6 NW 2 7 1 4 1021.3 1021.3 0.2
29/04:00pm 16.8 18.7 15.7 93 0.6 CALM 0 0 0 0 1021.4 1021.4 0.2
29/03:30pm 17.0 18.8 15.5 91 0.9 CALM 0 0 0 0 1021.2 1021.2 0.2
29/03:00pm 17.2 19.0 15.5 90 1.0 CALM 0 0 0 0 1020.9 1020.9 0.2
29/02:30pm 17.1 17.7 15.3 89 1.0 SSW 6 7 3 4 1020.9 1020.9 0.2
29/02:00pm 16.8 17.3 15.0 89 1.0 NNW 6 9 3 5 1020.7 1020.7 0.2
29/01:30pm 17.1 17.9 14.7 86 1.4 WSW 4 7 2 4 1020.5 1020.5 0.2
29/01:00pm 16.9 17.0 14.4 85 1.4 SSW 7 9 4 5 1020.6 1020.6 0.2
29/12:30pm 16.9 17.2 14.4 85 1.4 W 6 9 3 5 1020.7 1020.7 0.2
29/12:00pm 15.9 15.0 13.6 86 1.3 WNW 11 15 6 8 1021.2 1021.2 0.2
29/11:30am 15.4 15.4 13.6 89 1.0 WNW 6 13 3 7 1021.6 1021.6 0.2
29/11:00am 15.0 13.3 13.5 91 0.8 WNW 15 19 8 10 1022.0 1022.0 0.2
29/10:30am 15.2 15.3 13.9 92 0.7 NW 6 9 3 5 1022.1 1022.1 0.2
29/10:00am 15.2 15.7 13.9 92 0.7 NNW 4 7 2 4 1022.3 1022.3 0.0
29/09:30am 14.8 14.8 13.5 92 0.7 WNW 6 7 3 4 1022.5 1022.5 0.0
29/09:00am 14.7 15.3 13.2 91 0.8 W 2 7 1 4 1022.5 1022.5 0.2
29/08:30am 14.4 15.0 13.1 92 0.7 WNW 2 6 1 3 1022.2 1022.2 0.2
29/08:00am 14.1 14.6 12.8 92 0.7 NW 2 9 1 5 1021.9 1021.9 0.2
29/07:30am 13.7 12.5 12.8 94 0.5 NW 11 13 6 7 1021.6 1021.6 0.0
29/07:00am 13.4 12.5 12.5 94 0.5 WNW 9 11 5 6 1021.4 1021.4 0.0
29/06:30am 13.3 12.8 12.2 93 0.6 NW 6 7 3 4 1021.0 1021.0 0.0
29/06:00am 13.4 12.8 12.3 93 0.6 NW 7 9 4 5 1021.0 1021.0 0.0
29/05:30am 13.5 12.5 12.4 93 0.6 NNW 9 11 5 6 1020.8 1020.8 0.0
29/05:00am 13.3 12.9 12.5 95 0.4 NW 6 7 3 4 1020.7 1020.7 0.0
29/04:30am 13.2 12.8 12.4 95 0.4 WNW 6 7 3 4 1020.5 1020.5 0.0
29/04:00am 13.2 12.7 12.6 96 0.3 NNW 7 9 4 5 1020.6 1020.6 0.0
29/03:30am 13.2 12.6 12.4 95 0.4 NNW 7 9 4 5 1020.5 1020.5 0.0
29/03:00am 13.0 12.4 12.2 95 0.4 NW 7 9 4 5 1021.0 1021.0 0.0
29/02:30am 12.9 12.4 12.0 94 0.5 WNW 6 9 3 5 1021.1 1021.1 0.0
29/02:00am 13.3 12.9 12.4 94 0.5 NNW 6 7 3 4 1021.3 1021.3 0.0
29/01:30am 13.5 13.3 12.9 96 0.3 WNW 6 7 3 4 1021.4 1021.4 0.0
29/01:00am 13.2 13.6 12.4 95 0.4 NW 2 7 1 4 1022.0 1022.0 0.0
29/12:30am 13.6 14.5 13.0 96 0.3 CALM 0 0 0 0 1021.8 1021.8 0.0
29/12:00am 13.6 14.2 13.1 97 0.3 NNW 2 7 1 4 1022.4 1022.4 0.0
 
Date/Time
EST
Temp
°C
App
Temp
°C
Dew
Point
Rel
Hum
%
Delta-T
°C
Wind Press
QNH
hPa
Press
MSL
hPa
Rain
since 9 am
mm
Dir
 
Spd
km/h
Gust
km/h
Spd
kts
Gust
kts
28/11:30pm 13.0 13.8 12.5 97 0.3 CALM 0 0 0 0 1022.7 1022.7 0.0
28/11:00pm 12.6 13.2 12.0 96 0.3 CALM 0 0 0 0 1022.8 1022.8 0.0
28/10:30pm 12.0 12.4 11.2 95 0.4 CALM 0 0 0 0 1022.5 1022.5 0.0
28/10:00pm 12.6 12.8 11.8 95 0.4 NW 2 7 1 4 1022.7 1022.7 0.0
28/09:30pm 12.3 12.7 11.4 94 0.5 CALM 0 0 0 0 1022.8 1022.8 0.0
28/09:00pm 12.4 12.9 11.5 94 0.5 CALM 0 0 0 0 1023.2 1023.2 0.0
28/08:30pm 12.7 12.9 11.8 94 0.5 NW 2 7 1 4 1022.8 1022.8 0.0
28/08:00pm 13.2 13.9 12.3 94 0.5 CALM 0 0 0 0 1023.0 1023.0 0.0
28/07:30pm 13.5 14.2 12.2 92 0.7 CALM 0 0 0 0 1022.9 1022.9 0.0
28/07:00pm 14.1 14.7 13.0 93 0.6 SW 2 6 1 3 1022.8 1022.8 0.0
28/06:30pm 14.4 14.9 12.8 90 0.9 SW 2 7 1 4 1022.6 1022.6 0.0
28/06:00pm 15.1 16.0 13.0 87 1.2 CALM 0 0 0 0 1022.3 1022.3 0.0
28/05:30pm 16.9 17.7 13.6 81 1.9 N 2 6 1 3 1021.9 1021.9 0.0
28/05:00pm 18.6 18.1 13.9 74 2.7 NE 9 9 5 5 1021.7 1021.7 0.0
28/04:30pm 19.4 18.9 13.8 70 3.2 NE 9 13 5 7 1021.7 1021.7 0.0
28/04:00pm 19.7 19.4 14.3 71 3.1 NE 9 13 5 7 1021.8 1021.8 0.0
28/03:30pm 20.6 20.0 13.6 64 4.0 ENE 9 13 5 7 1021.4 1021.4 0.0
28/03:00pm 21.1 20.7 14.0 64 4.1 NE 9 13 5 7 1021.3 1021.3 0.0
28/02:30pm 20.7 19.9 13.9 65 3.9 ENE 11 15 6 8 1021.4 1021.4 0.0
28/02:00pm 20.5 19.4 14.2 67 3.6 ENE 13 17 7 9 1021.3 1021.3 0.0
28/01:30pm 21.3 20.6 15.4 69 3.5 NE 13 17 7 9 1021.5 1021.5 0.0
28/01:00pm 21.0 19.8 13.9 64 4.1 ENE 13 17 7 9 1021.5 1021.5 0.0
28/12:30pm 21.8 21.8 13.7 60 4.7 N 6 13 3 7 1022.2 1022.2 0.0
28/12:00pm 21.3 21.6 13.5 61 4.5 N 4 9 2 5 1022.7 1022.7 0.0
28/11:30am 20.3 19.5 13.0 63 4.1 NNE 9 11 5 6 1023.1 1023.1 0.0
28/11:00am 19.9 19.7 12.9 64 3.9 NW 6 11 3 6 1024.0 1024.0 0.0
28/10:30am 18.8 18.0 13.0 69 3.3 WSW 9 13 5 7 1024.1 1024.1 0.0
28/10:00am 17.8 17.3 12.7 72 2.8 WNW 7 11 4 6 1024.3 1024.3 0.0
28/09:30am 16.8 15.9 12.7 77 2.3 WSW 9 11 5 6 1024.4 1024.4 0.0
28/09:00am 15.7 15.4 13.2 85 1.4 W 7 11 4 6 1024.5 1024.5 0.0
28/08:30am 14.8 14.5 12.8 88 1.1 W 6 9 3 5 1024.3 1024.3 0.0
28/08:00am 14.0 14.8 12.6 91 0.8 CALM 0 0 0 0 1024.0 1024.0 0.0
28/07:30am 13.7 14.5 12.4 92 0.7 CALM 0 0 0 0 1023.7 1023.7 0.0
28/07:00am 13.5 14.2 12.2 92 0.7 CALM 0 0 0 0 1023.6 1023.6 0.0
28/06:30am 13.5 14.2 12.2 92 0.7 CALM 0 0 0 0 1023.3 1023.3 0.0
28/06:00am 13.8 14.6 12.4 91 0.8 CALM 0 0 0 0 1022.9 1022.9 0.0
28/05:30am 13.8 14.1 12.2 90 0.9 WNW 2 9 1 5 1022.7 1022.7 0.0
28/05:00am 13.8 14.1 12.2 90 0.9 W 2 7 1 4 1022.3 1022.3 0.0
28/04:30am 13.8 14.1 12.2 90 0.9 WNW 2 7 1 4 1022.4 1022.4 0.0
28/04:00am 13.7 14.4 12.1 90 0.9 CALM 0 0 0 0 1022.5 1022.5 0.0
28/03:30am 14.0 13.5 12.2 89 1.0 W 6 9 3 5 1022.5 1022.5 0.0
28/03:00am 14.1 13.7 12.5 90 0.9 WSW 6 11 3 6 1022.8 1022.8 0.0
28/02:30am 13.8 13.4 12.4 91 0.8 WSW 6 7 3 4 1022.9 1022.9 0.0
28/02:00am 13.9 14.3 12.5 91 0.8 W 2 6 1 3 1022.9 1022.9 0.0
28/01:30am 14.0 13.5 12.6 91 0.8 W 7 11 4 6 1023.2 1023.2 0.0
28/01:00am 13.9 13.6 12.8 93 0.6 W 6 9 3 5 1023.2 1023.2 0.0
28/12:30am 13.7 14.6 12.9 95 0.4 CALM 0 0 0 0 1023.3 1023.3 0.0
28/12:00am 13.6 13.2 13.0 96 0.3 W 7 9 4 5 1023.4 1023.4 0.0
 
Date/Time
EST
Temp
°C
App
Temp
°C
Dew
Point
Rel
Hum
%
Delta-T
°C
Wind Press
QNH
hPa
Press
MSL
hPa
Rain
since 9 am
mm
Dir
 
Spd
km/h
Gust
km/h
Spd
kts
Gust
kts
27/11:30pm 13.3 14.1 12.7 96 0.3 CALM 0 0 0 0 1023.3 1023.3 0.0
27/11:00pm 13.0 13.0 12.4 96 0.3 WNW 4 9 2 5 1023.6 1023.6 0.0
27/10:41pm 12.6 13.2 11.8 95 0.4 CALM 0 0 0 0 1023.5 1023.5 0.0
27/10:30pm 12.6 13.2 11.8 95 0.4 CALM 0 0 0 0 1023.3 1023.3 0.0
27/10:23pm 12.4 12.9 11.5 94 0.5 CALM 0 0 0 0 1023.2 1023.2 0.0
27/10:00pm 12.4 12.9 11.6 95 0.4 CALM 0 0 0 0 1023.5 1023.5 0.0
27/09:55pm 12.7 13.3 11.9 95 0.4 CALM 0 0 0 0 1023.6 1023.6 0.0
27/09:30pm 12.7 13.3 11.9 95 0.4 CALM 0 0 0 0 1023.8 1023.8 0.0
27/09:20pm 12.9 13.6 12.1 95 0.4 CALM 0 0 0 0 1023.8 1023.8 0.0
27/09:00pm 13.1 13.8 12.3 95 0.4 CALM 0 0 0 0 1023.9 1023.9 0.0
27/08:30pm 13.9 13.8 13.3 96 0.3 NW 6 7 3 4 1023.9 1023.9 0.0
27/08:00pm 13.4 13.8 12.5 94 0.5 WSW 2 7 1 4 1023.6 1023.6 0.0
27/07:30pm 13.5 13.9 12.6 94 0.5 SW 2 7 1 4 1023.6 1023.6 0.0
27/07:00pm 13.8 13.4 12.5 92 0.7 SW 6 6 3 3 1023.3 1023.3 0.0
27/06:30pm 14.4 15.0 13.0 91 0.8 NE 2 7 1 4 1023.4 1023.4 0.0
27/06:00pm 15.3 15.2 13.3 88 1.1 NE 6 7 3 4 1022.8 1022.8 0.0
27/05:30pm 16.5 17.8 14.2 86 1.3 CALM 0 0 0 0 1022.6 1022.6 0.0
27/05:00pm 18.2 18.4 14.3 78 2.2 NE 6 9 3 5 1022.3 1022.3 0.0
27/04:30pm 18.6 18.6 14.3 76 2.5 E 7 9 4 5 1022.4 1022.4 0.0
27/04:00pm 19.3 18.9 14.1 72 3.0 E 9 13 5 7 1022.3 1022.3 0.0
27/03:30pm 19.5 18.2 13.7 69 3.3 ENE 13 15 7 8 1022.1 1022.1 0.0
27/03:00pm 19.3 17.9 13.5 69 3.3 ENE 13 19 7 10 1022.1 1022.1 0.0
27/02:30pm 19.9 18.6 13.8 68 3.5 ENE 13 17 7 9 1022.2 1022.2 0.0
27/02:00pm 20.7 19.5 13.9 65 3.9 E 13 19 7 10 1022.0 1022.0 0.0
27/01:30pm 20.8 20.2 13.5 63 4.2 NE 9 13 5 7 1022.3 1022.3 0.0
27/01:00pm 20.9 21.2 12.1 57 4.9 NNE 2 7 1 4 1022.7 1022.7 0.0
27/12:30pm 20.5 19.5 12.2 59 4.6 N 9 17 5 9 1023.0 1023.0 0.0
27/12:00pm 20.4 19.2 12.9 62 4.2 NNW 11 15 6 8 1023.3 1023.3 0.0
27/11:30am 19.8 18.6 12.8 64 3.9 N 11 15 6 8 1023.7 1023.7 0.0
27/11:00am 19.8 19.1 13.3 66 3.7 N 9 17 5 9 1024.3 1024.3 0.0
27/10:30am 19.0 18.1 13.6 71 3.1 NNW 11 17 6 9 1024.5 1024.5 0.0
27/10:00am 17.7 16.6 13.2 75 2.5 NNW 11 15 6 8 1024.8 1024.8 0.0
27/09:30am 16.5 15.7 12.8 79 2.1 NNW 9 13 5 7 1025.1 1025.1 0.0
27/09:00am 15.2 14.5 12.0 81 1.7 NNW 7 11 4 6 1025.3 1025.3 0.0
27/08:30am 13.7 13.1 11.6 87 1.1 WNW 6 9 3 5 1025.5 1025.5 0.0
27/08:00am 12.3 11.4 11.4 94 0.5 W 7 9 4 5 1025.2 1025.2 0.0
27/07:30am 11.3 11.5 10.7 96 0.3 CALM 0 0 0 0 1024.8 1024.8 0.0
27/07:00am 10.5 9.4 10.0 97 0.3 NW 6 6 3 3 1024.9 1024.9 0.0
27/06:30am 10.8 10.6 10.3 97 0.3 WNW 2 7 1 4 1024.7 1024.7 0.0
27/06:00am 10.7 9.5 10.2 97 0.3 WNW 7 9 4 5 1024.7 1024.7 0.0
27/05:30am 9.4 8.4 8.8 96 0.3 WNW 4 7 2 4 1024.2 1024.2 0.0
27/05:00am 9.9 9.8 9.4 97 0.2 CALM 0 0 0 0 1024.0 1024.0 0.0

Other Formats:

Comma delimited format used in spreadsheet applications
http://www.bom.gov.au/fwo/IDN60801/IDN60801.94786.axf

JavaScript Object Notation format (JSON) in row-major order
http://www.bom.gov.au/fwo/IDN60801/IDN60801.94786.json